Flight Information

DEPARTURE
ONTARIO, CA
Elevation:
944
Runways:
8R/26L - 10200x150 - CONC-G
8L/26R - 12197x150 - CONC-G
Active PE Departure:
26L
Current PE ATIS:
L
Altimeter:
30.10
Remarks:
V F R DEPARTURES CONTACT CLEARANCE DELIVERY, ADVISE ON COURSE HEADING, ALTITUDE, AND IF FLIGHT FOLLOWING IS REQUESTED. RUNWAY 8 LEFT 2 6 RIGHT CLOSED.
ATIS:
124.25 909-605-0056
Clearance Delivery:
118.1
Ground:
121.9
Tower:
120.6
DESTINATION
,
Elevation:
TPA:
1000 (est.)


6754.1 NM74° True-14° Var59° HDG

Flight Plan:
(click to file on line)

1. Type
2. Aircraft Identification
3. Aircraft Type / Special Equipment
4. True Airspeed
kts
5. Departure Airport
(ICAO code)
6. Arriving Airport
(ICAO code)
7. Cruising Altitude
ft
8. Alternate Airport
(ICAO code)
9. Route of Flight
10. Remarks


00:00:00 Departure ATIS: Destination ATIS:

Clearance Limit:
Route:
Altitude: Expect in minutes
Frequency:
Transponder: (7500 Hijack / 7600 Lost Comms / 7700 Emergency)


KONT 211753Z VRB03KT 10SM CLR 33/06 A3010 RMK AO2 SLP173 T03330061 10333 20194 50003
Time: 2021-09-21T17:53:00Z
1632249193
Winds: variable
Visibility: 10.0 sm
Clouds (AGL): CLR
Temperature: 33.3 C
Dew Point: 6.1 C
Pressure: 30.100393 in Hgbr


Notes:

Data extracted from FAA Digital Chart Supplement. Effective: 0901Z Thursday, AUG 12, 2021 to 0901Z Thursday, OCT 7, 2021
Current ATIS data is provided courtisy of PilotEdge.